SWR93 SAEZ-SBGR
Flight info
| Callsign | SWR93 |
|---|---|
| Flight time | N/A |
| Altitude | 39000 |
| Route | DORVO1E DORVO UN857 OGRUN UZ121 BUXUK |
| Aircraft | B77W/H-SDE1E2E3FGHIJ2J3J4J5M1RWXY/LB1D1 |
Departure
| Time | 2026-04-27 21:37 |
|---|---|
| Airport | Ezeiza International Airport - Ministro Pistarini (SAEZ) |
Arrival
| Time | N/A |
|---|---|
| Airport | São Paulo/Guarulhos–Governor André Franco Montoro International Airport (SBGR) |
| Time | Latitude | Longitude | Altitude | Speed | Heading |
|---|---|---|---|---|---|
| 2026-04-27 21:08 | -34.81679 | -58.54023 | 78 ft | 0 kts | 316° |
| 2026-04-27 21:17 | -34.81687 | -58.54014 | 78 ft | 2 kts | 316° |
| 2026-04-27 21:17 | -34.81698 | -58.54001 | 78 ft | 2 kts | 316° |
| 2026-04-27 21:18 | -34.81709 | -58.53988 | 78 ft | 2 kts | 316° |
| 2026-04-27 21:18 | -34.81720 | -58.53976 | 78 ft | 2 kts | 316° |
| 2026-04-27 21:18 | -34.81730 | -58.53963 | 78 ft | 2 kts | 316° |
| 2026-04-27 21:18 | -34.81741 | -58.53951 | 78 ft | 2 kts | 338° |
| 2026-04-27 21:19 | -34.81755 | -58.53949 | 78 ft | 2 kts | 14° |
| 2026-04-27 21:19 | -34.81768 | -58.53957 | 78 ft | 2 kts | 48° |
| 2026-04-27 21:19 | -34.81773 | -58.53964 | 78 ft | 1 kts | 61° |
| 2026-04-27 21:20 | -34.81774 | -58.53966 | 78 ft | 0 kts | 61° |
| 2026-04-27 21:26 | -34.81773 | -58.53964 | 78 ft | 2 kts | 59° |
| 2026-04-27 21:26 | -34.81733 | -58.53882 | 78 ft | 19 kts | 59° |
| 2026-04-27 21:27 | -34.81739 | -58.53736 | 78 ft | 18 kts | 126° |
| 2026-04-27 21:27 | -34.81844 | -58.53660 | 78 ft | 17 kts | 155° |
| 2026-04-27 21:27 | -34.81921 | -58.53566 | 78 ft | 15 kts | 109° |
| 2026-04-27 21:27 | -34.81950 | -58.53439 | 78 ft | 15 kts | 104° |
| 2026-04-27 21:28 | -34.81975 | -58.53312 | 78 ft | 18 kts | 103° |
| 2026-04-27 21:28 | -34.82013 | -58.53115 | 78 ft | 28 kts | 104° |
| 2026-04-27 21:28 | -34.82061 | -58.52887 | 78 ft | 27 kts | 103° |
| 2026-04-27 21:28 | -34.82103 | -58.52667 | 78 ft | 25 kts | 103° |
| 2026-04-27 21:29 | -34.82138 | -58.52491 | 78 ft | 15 kts | 103° |
| 2026-04-27 21:29 | -34.82159 | -58.52384 | 78 ft | 12 kts | 103° |
| 2026-04-27 21:29 | -34.82181 | -58.52277 | 78 ft | 13 kts | 104° |
| 2026-04-27 21:29 | -34.82202 | -58.52170 | 78 ft | 12 kts | 104° |
| 2026-04-27 21:30 | -34.82224 | -58.52064 | 78 ft | 12 kts | 104° |
| 2026-04-27 21:30 | -34.82246 | -58.51960 | 78 ft | 12 kts | 104° |
| 2026-04-27 21:30 | -34.82267 | -58.51855 | 78 ft | 12 kts | 104° |
| 2026-04-27 21:30 | -34.82309 | -58.51778 | 78 ft | 11 kts | 170° |
| 2026-04-27 21:31 | -34.82334 | -58.51779 | 78 ft | 0 kts | 188° |
| 2026-04-27 21:34 | -34.82368 | -58.51785 | 78 ft | 10 kts | 188° |
| 2026-04-27 21:34 | -34.82464 | -58.51802 | 78 ft | 13 kts | 181° |
| 2026-04-27 21:34 | -34.82541 | -58.51823 | 78 ft | 9 kts | 254° |
| 2026-04-27 21:35 | -34.82539 | -58.51848 | 78 ft | 0 kts | 282° |
| 2026-04-27 21:36 | -34.82519 | -58.51965 | 78 ft | 44 kts | 282° |
| 2026-04-27 21:36 | -34.82400 | -58.52636 | 78 ft | 117 kts | 282° |
| 2026-04-27 21:37 | -34.82180 | -58.53856 | 146 ft | 169 kts | 282° |
| 2026-04-27 21:37 | -34.81896 | -58.55242 | 898 ft | 173 kts | 281° |
| 2026-04-27 21:37 | -34.81642 | -58.56649 | 1629 ft | 178 kts | 281° |
| 2026-04-27 21:37 | -34.81368 | -58.58197 | 2140 ft | 194 kts | 281° |
| 2026-04-27 21:38 | -34.81077 | -58.59858 | 2679 ft | 210 kts | 279° |
| 2026-04-27 21:38 | -34.81134 | -58.61687 | 3202 ft | 226 kts | 252° |
| 2026-04-27 21:38 | -34.82004 | -58.63262 | 4044 ft | 228 kts | 220° |
| 2026-04-27 21:38 | -34.83392 | -58.64080 | 4969 ft | 227 kts | 193° |
| 2026-04-27 21:39 | -34.85009 | -58.63978 | 5654 ft | 239 kts | 162° |
| 2026-04-27 21:39 | -34.86398 | -58.62860 | 6318 ft | 250 kts | 133° |
| 2026-04-27 21:39 | -34.87227 | -58.60900 | 6704 ft | 273 kts | 106° |
| 2026-04-27 21:39 | -34.87354 | -58.58553 | 7174 ft | 290 kts | 84° |
| 2026-04-27 21:40 | -34.87037 | -58.56102 | 7977 ft | 294 kts | 82° |
| 2026-04-27 21:40 | -34.86679 | -58.53587 | 8702 ft | 301 kts | 82° |
| 2026-04-27 21:40 | -34.86317 | -58.51068 | 9433 ft | 306 kts | 82° |
| 2026-04-27 21:40 | -34.85952 | -58.48528 | 10184 ft | 310 kts | 82° |
| 2026-04-27 21:41 | -34.85570 | -58.45863 | 10656 ft | 326 kts | 82° |
| 2026-04-27 21:41 | -34.85171 | -58.43089 | 11090 ft | 343 kts | 82° |
| 2026-04-27 21:41 | -34.84748 | -58.40155 | 11550 ft | 361 kts | 82° |
| 2026-04-27 21:41 | -34.84304 | -58.37078 | 12050 ft | 377 kts | 82° |
| 2026-04-27 21:42 | -34.83846 | -58.33908 | 12570 ft | 394 kts | 81° |
| 2026-04-27 21:42 | -34.83358 | -58.30550 | 13145 ft | 411 kts | 81° |
| 2026-04-27 21:42 | -34.82851 | -58.27068 | 13799 ft | 424 kts | 81° |
| 2026-04-27 21:42 | -34.82330 | -58.23499 | 14717 ft | 434 kts | 81° |
| 2026-04-27 21:43 | -34.81788 | -58.19796 | 15727 ft | 442 kts | 81° |
| 2026-04-27 21:43 | -34.81243 | -58.16078 | 16633 ft | 451 kts | 81° |
| 2026-04-27 21:43 | -34.80690 | -58.12315 | 17549 ft | 459 kts | 81° |
| 2026-04-27 21:43 | -34.80592 | -58.11647 | 17704 ft | 460 kts | 81° |